RLSO2: Arkansas River, Ralston, OK

Data processed at Sat Mar 10 2018 23:20


All information presented herein is the property of the government of the United States of America and may be revised or deleted at any time without prior notice.
Dissemination of this information without the expressed written consent of the Public Affairs Office, Tulsa District U.S. Army Corps of Engineers is strictly prohibited.
These data are gathered electronically and, as presented, have not undergone any form of quality control. These data are not guaranteed to be valid or correct.
Go to home page.
Go to station list.

Upstream stations:

Downstream station:
Previous Day
Next Day
Current Day
    
SHEF ID:       RLSO2     Arkansas River at Ralston, OK
STATION TYPE:  

               PRECIP     STAGE  RIV-FLOW  BAT-LOAD
                   in        ft       cfs      volt
              Ccp-Rev   Ccp-Rev   Ccp-Rev   Ccp-Rev
(US/Central)
03/08 00:00      0.00      4.62      2676     12.49
03/08 01:00      0.00      4.64      2725     12.49
03/08 02:00      0.00      4.64      2725     12.49
03/08 03:00      0.00      4.64      2725     12.41
03/08 04:00      0.00      4.65      2749     12.41
03/08 05:00      0.00      4.63      2700     12.41
03/08 06:00      0.00      4.63      2700     12.41
03/08 07:00      0.00      4.61      2651     12.41
03/08 08:00      0.00      4.58      2579     12.41
03/08 09:00      0.00      4.56      2532     12.97
03/08 10:00      0.00      4.52      2438     13.84
03/08 11:00      0.00      4.46      2300     14.00
03/08 12:00      0.00      4.42      2210     14.00
03/08 13:00      0.00      4.40      2166     13.92
03/08 14:00      0.00      4.35      2057     13.92
03/08 15:00      0.00      4.28      1910     13.92
03/08 16:00      0.00      4.20      1742     13.60
03/08 17:00      0.00      4.18      1701     13.29
03/08 18:00      0.00      4.14      1620     13.21
03/08 19:00      0.00      4.11      1561     13.13
03/08 20:00      0.00      4.07      1483     12.73
03/08 21:00      0.00      3.97      1299     12.65
03/08 22:00      0.00      4.00      1353     12.57
03/08 23:00      0.00      3.97      1299     12.57